Decoded Metar for KMOT (MINOT in ND, USA) (IATA:MOT) | Meteo·Mobile Aviation Weather
aviador You're here:

KMOT Decoded Metar

MINOT in ND, USA
Report Time2018-12-18 15:54:00
UTC Time2018-12-18 16:48:27
Flight Rules vfr VFR
Wind230° at 10 kt
W.Decomp.*RWY 26: 7.7 kt HW 6.4 kt LCW
RWY 13: 10.0 kt RCW
W.Rank230° ranks 3
Current wind is above 230° avg. (8.6)
Visibility9999 m
Phenomena:N/A
Clouds:N/A
Expected CloudBase > 2,000 ft AGL from Temp-Dew spread
CeilingNone
Temp02°C (ISA -10)
Dew Point-3°C (70% RH)
AAT-4.0°C
QNH1008 hPa
Density Alt781 ft
Elevation1,703 ft
Report Wrong Elevation
Raw Report
KMOT 181554Z 23010KT 10SM CLR 02/M03 A2976 RMK AO2 SLP095
T00171033=

Extra information for KMOT:More info

Metar Taf Metar & Taf Last 4 Metars F.Rules Stats Wind Profile Meteogram Temp Stats Airport Information Weather charts Add Link Nearby VenuesMetar ALERT Operation Metar Decoded Social comments

AIRNAV info for KMOT